createdAt,value
2019-05-02T00:01:02.978Z,9.27
2019-05-02T00:03:29.841Z,9.40
2019-05-02T00:05:56.599Z,9.30
2019-05-02T00:08:23.335Z,9.07
2019-05-02T00:10:50.062Z,9.00
2019-05-02T00:13:16.803Z,8.70
2019-05-02T00:15:43.526Z,9.00
2019-05-02T00:18:10.249Z,9.47
2019-05-02T00:20:37.003Z,9.80
2019-05-02T00:23:03.750Z,8.73
2019-05-02T00:25:30.522Z,9.60
2019-05-02T00:27:57.250Z,8.80
2019-05-02T00:30:24.001Z,9.07
2019-05-02T00:32:53.243Z,9.70
2019-05-02T00:35:17.474Z,9.40
2019-05-02T00:37:44.270Z,11.10
2019-05-02T00:40:11.007Z,10.43
2019-05-02T00:42:37.714Z,11.20
2019-05-02T00:45:04.538Z,10.63
2019-05-02T00:47:42.172Z,10.20
2019-05-02T00:50:10.734Z,10.00
2019-05-02T00:52:36.450Z,11.90
2019-05-02T00:54:59.887Z,11.00
2019-05-02T00:57:26.374Z,9.80
2019-05-02T00:59:53.162Z,10.70
2019-05-02T01:02:24.106Z,11.27
2019-05-02T01:04:50.847Z,8.93
2019-05-02T01:07:20.480Z,9.60
2019-05-02T01:09:46.784Z,9.13
2019-05-02T01:12:11.013Z,9.60
2019-05-02T01:14:37.742Z,9.90
2019-05-02T01:17:04.477Z,9.50
2019-05-02T01:19:31.203Z,10.10
2019-05-02T01:21:57.934Z,11.10
2019-05-02T01:24:24.675Z,9.00
2019-05-02T01:27:04.511Z,10.60
2019-05-02T01:29:36.914Z,8.40
2019-05-02T01:32:25.187Z,10.10
2019-05-02T01:34:56.422Z,10.00
2019-05-02T01:37:27.327Z,9.50
2019-05-02T01:39:54.065Z,9.50
2019-05-02T01:42:20.787Z,10.15
2019-05-02T01:44:47.541Z,10.50
2019-05-02T01:47:14.334Z,7.90
2019-05-02T01:49:41.106Z,10.30
2019-05-02T01:52:07.863Z,10.20
2019-05-02T01:54:34.617Z,9.80
2019-05-02T01:57:04.029Z,9.60
2019-05-02T01:59:29.121Z,9.80
2019-05-02T02:01:57.987Z,9.07
2019-05-02T02:04:22.286Z,8.43
2019-05-02T02:06:48.270Z,9.37
2019-05-02T02:09:14.986Z,8.30
2019-05-02T02:11:41.723Z,7.73
2019-05-02T02:14:13.050Z,8.20
2019-05-02T02:16:39.181Z,9.10
2019-05-02T02:19:08.697Z,9.93
2019-05-02T02:21:47.830Z,9.27
2019-05-02T02:24:21.134Z,9.47
2019-05-02T02:26:48.160Z,9.47
2019-05-02T02:29:13.209Z,8.30
2019-05-02T02:31:46.492Z,8.60
2019-05-02T02:34:06.670Z,8.10
2019-05-02T02:36:34.710Z,9.20
2019-05-02T02:39:00.146Z,8.70
2019-05-02T02:41:26.893Z,8.53
2019-05-02T02:44:04.472Z,9.37
2019-05-02T02:46:37.963Z,8.70
2019-05-02T02:48:59.357Z,8.40
2019-05-02T02:51:26.494Z,8.60
2019-05-02T02:54:02.716Z,9.80
2019-05-02T02:56:19.588Z,10.30
2019-05-02T02:58:47.916Z,9.67
2019-05-02T03:01:13.057Z,9.13
2019-05-02T03:03:39.834Z,10.17
2019-05-02T03:06:08.211Z,10.20
2019-05-02T03:08:44.669Z,10.43
2019-05-02T03:11:00.035Z,10.17
2019-05-02T03:13:53.447Z,9.50
2019-05-02T03:16:19.303Z,8.73
2019-05-02T03:18:46.037Z,10.65
2019-05-02T03:21:13.317Z,9.47
2019-05-02T03:23:39.506Z,9.50
2019-05-02T03:26:07.884Z,10.80
2019-05-02T03:28:33.006Z,10.55
2019-05-02T03:30:59.739Z,9.87
2019-05-02T03:33:26.475Z,10.07
2019-05-02T03:35:53.251Z,10.20
2019-05-02T03:38:31.348Z,11.23
2019-05-02T03:40:47.603Z,12.10
2019-05-02T03:43:18.904Z,12.90
2019-05-02T03:45:43.028Z,13.27
2019-05-02T03:48:07.863Z,12.90
2019-05-02T03:50:35.385Z,11.93
2019-05-02T03:53:01.337Z,13.17
2019-05-02T03:55:30.696Z,12.00
2019-05-02T03:57:54.803Z,12.60
2019-05-02T04:00:24.086Z,10.70
2019-05-02T04:02:58.925Z,12.53
2019-05-02T04:05:15.017Z,13.85
2019-05-02T04:07:42.336Z,14.60
2019-05-02T04:10:13.252Z,14.65
2019-05-02T04:12:35.264Z,13.20
2019-05-02T04:15:01.999Z,12.13
2019-05-02T04:17:35.260Z,10.80
2019-05-02T04:19:55.495Z,11.70
2019-05-02T04:22:22.258Z,13.70
2019-05-02T04:24:54.431Z,11.83
2019-05-02T04:27:15.719Z,12.80
2019-05-02T04:29:42.443Z,11.70
2019-05-02T04:32:11.487Z,12.57
2019-05-02T04:34:35.906Z,12.20
2019-05-02T04:37:03.971Z,12.23
2019-05-02T04:39:29.418Z,11.87
2019-05-02T04:41:58.622Z,11.73
2019-05-02T04:44:32.288Z,12.10
2019-05-02T04:46:49.850Z,13.20
2019-05-02T04:49:19.956Z,12.50
2019-05-02T04:51:50.741Z,13.93
2019-05-02T04:54:21.766Z,13.60
2019-05-02T04:56:39.729Z,12.60
2019-05-02T04:59:14.011Z,13.27
2019-05-02T05:01:42.089Z,12.83
2019-05-02T05:04:02.538Z,11.57
2019-05-02T05:06:23.814Z,12.60
2019-05-02T05:08:50.551Z,13.00
2019-05-02T05:11:21.233Z,12.60
2019-05-02T05:13:44.023Z,12.27
2019-05-02T05:16:15.356Z,13.50
2019-05-02T05:18:37.935Z,14.87
2019-05-02T05:21:04.305Z,14.40
2019-05-02T05:23:39.112Z,14.80
2019-05-02T05:26:07.288Z,14.50
2019-05-02T05:28:35.003Z,15.63
2019-05-02T05:30:59.390Z,14.80
2019-05-02T05:33:27.936Z,12.73
2019-05-02T05:35:52.870Z,13.70
2019-05-02T05:38:22.996Z,13.53
2019-05-02T05:40:47.877Z,12.30
2019-05-02T05:43:15.808Z,12.80
2019-05-02T05:45:50.796Z,12.30
2019-05-02T05:48:08.292Z,12.37
2019-05-02T05:50:37.735Z,11.90
2019-05-02T05:53:00.151Z,11.50
2019-05-02T05:55:28.152Z,11.10
2019-05-02T05:57:59.617Z,12.10
2019-05-02T06:00:23.151Z,11.23
2019-05-02T06:02:53.854Z,11.77
2019-05-02T06:05:13.930Z,11.43
2019-05-02T06:07:43.991Z,12.07
2019-05-02T06:10:08.129Z,11.90
2019-05-02T06:12:35.619Z,12.20
2019-05-02T06:15:01.624Z,12.20
2019-05-02T06:17:28.530Z,12.27
2019-05-02T06:19:55.458Z,13.30
2019-05-02T06:22:24.400Z,12.17
2019-05-02T06:24:50.760Z,11.93
2019-05-02T06:27:14.578Z,11.43
2019-05-02T06:29:41.318Z,12.60
2019-05-02T06:32:08.049Z,11.80
2019-05-02T06:34:38.289Z,11.53
2019-05-02T06:37:01.565Z,11.97
2019-05-02T06:39:31.875Z,12.33
2019-05-02T06:41:57.205Z,12.03
2019-05-02T06:44:23.725Z,12.80
2019-05-02T06:46:48.511Z,12.30
2019-05-02T06:49:15.256Z,10.67
2019-05-02T06:51:41.994Z,11.77
2019-05-02T06:54:08.730Z,12.40
2019-05-02T06:56:35.453Z,12.10
2019-05-02T06:59:03.307Z,11.67
2019-05-02T07:01:30.306Z,13.13
2019-05-02T07:03:57.047Z,14.00
2019-05-02T07:06:23.810Z,12.13
2019-05-02T07:08:50.596Z,11.60
2019-05-02T07:11:17.334Z,12.13
2019-05-02T07:13:44.078Z,12.30
2019-05-02T07:16:38.362Z,11.70
2019-05-02T07:19:05.662Z,12.27
2019-05-02T07:21:32.404Z,11.63
2019-05-02T07:23:59.154Z,11.80
2019-05-02T07:26:25.906Z,11.40
2019-05-02T07:28:52.697Z,12.00
2019-05-02T07:31:19.526Z,12.57
2019-05-02T07:33:46.398Z,13.03
2019-05-02T07:36:13.134Z,12.07
2019-05-02T07:38:39.962Z,14.67
2019-05-02T07:41:06.694Z,12.47
2019-05-02T07:43:33.442Z,12.50
2019-05-02T07:46:00.187Z,12.90
2019-05-02T07:48:26.914Z,12.73
2019-05-02T07:50:54.094Z,14.00
2019-05-02T07:53:20.395Z,14.80
2019-05-02T07:55:49.178Z,14.30
2019-05-02T07:58:13.961Z,15.00
2019-05-02T08:00:40.699Z,15.80
2019-05-02T08:03:07.425Z,15.67
2019-05-02T08:05:34.170Z,15.47
2019-05-02T08:08:00.909Z,15.40
2019-05-02T08:10:27.662Z,15.70
2019-05-02T08:12:54.390Z,15.83
2019-05-02T08:15:24.152Z,16.23
2019-05-02T08:17:53.174Z,15.40
2019-05-02T08:20:19.358Z,15.23
2019-05-02T08:22:44.126Z,17.40
2019-05-02T08:25:10.425Z,20.50
2019-05-02T08:27:53.992Z,16.93
2019-05-02T08:30:25.934Z,16.90
2019-05-02T08:32:52.654Z,17.30
2019-05-02T08:35:19.390Z,16.67
2019-05-02T08:37:46.101Z,18.90
2019-05-02T08:40:12.849Z,21.47
2019-05-02T08:42:39.574Z,24.80
2019-05-02T08:45:06.330Z,22.17
2019-05-02T08:47:33.063Z,23.90
2019-05-02T08:49:59.793Z,22.50
2019-05-02T08:52:26.519Z,26.47
2019-05-02T08:54:53.282Z,23.77
2019-05-02T08:57:20.007Z,24.23
2019-05-02T08:59:46.794Z,22.43
2019-05-02T09:02:13.526Z,26.00
2019-05-02T09:04:40.242Z,29.75
2019-05-02T09:07:07.024Z,28.00
2019-05-02T09:09:33.717Z,27.60
2019-05-02T09:12:09.770Z,26.77
2019-05-02T09:14:27.201Z,28.17
2019-05-02T09:16:53.950Z,27.23
2019-05-02T09:19:24.435Z,28.30
2019-05-02T09:21:47.426Z,30.07
2019-05-02T09:24:20.972Z,28.20
2019-05-02T09:26:42.572Z,28.50
2019-05-02T09:29:07.778Z,27.97
2019-05-02T09:31:36.750Z,30.03
2019-05-02T09:34:02.683Z,28.50
2019-05-02T09:36:28.381Z,28.90
2019-05-02T09:38:57.623Z,29.50
2019-05-02T09:41:22.219Z,28.83
2019-05-02T09:43:48.669Z,28.40
2019-05-02T09:46:16.714Z,30.27
2019-05-02T09:48:42.710Z,28.50
2019-05-02T09:51:12.861Z,29.57
2019-05-02T09:53:35.662Z,28.93
2019-05-02T09:56:02.499Z,32.67
2019-05-02T09:58:29.252Z,28.20
2019-05-02T10:01:05.553Z,27.70
2019-05-02T10:03:32.355Z,29.27
2019-05-02T10:05:59.102Z,27.30
2019-05-02T10:08:25.840Z,26.10
2019-05-02T10:10:52.591Z,28.30
2019-05-02T10:13:19.306Z,27.03
2019-05-02T10:15:46.033Z,29.12
2019-05-02T10:18:14.505Z,27.90
2019-05-02T10:20:41.639Z,29.10
2019-05-02T10:23:06.353Z,28.57
2019-05-02T10:25:38.528Z,29.07
2019-05-02T10:28:02.137Z,29.90
2019-05-02T10:30:29.099Z,27.10
2019-05-02T10:32:58.950Z,30.83
2019-05-02T10:35:34.087Z,29.47
2019-05-02T10:37:54.350Z,27.00
2019-05-02T10:40:22.481Z,26.27
2019-05-02T10:42:47.820Z,26.33
2019-05-02T10:45:16.697Z,24.73
2019-05-02T10:47:42.311Z,27.17
2019-05-02T10:50:12.284Z,26.13
2019-05-02T10:52:39.034Z,24.87
2019-05-02T10:55:05.851Z,26.10
2019-05-02T10:57:32.718Z,23.77
2019-05-02T10:59:59.339Z,22.53
2019-05-02T11:02:37.438Z,23.47
2019-05-02T11:05:09.452Z,20.60
2019-05-02T11:07:36.222Z,21.93
2019-05-02T11:10:06.744Z,22.00
2019-05-02T11:12:43.409Z,20.60
2019-05-02T11:15:22.094Z,22.20
2019-05-02T11:17:48.542Z,22.33
2019-05-02T11:20:15.266Z,21.20
2019-05-02T11:22:42.770Z,21.10
2019-05-02T11:25:08.810Z,20.73
2019-05-02T11:27:35.573Z,21.10
2019-05-02T11:30:02.837Z,21.23
2019-05-02T11:32:29.346Z,21.20
2019-05-02T11:34:56.183Z,19.97
2019-05-02T11:37:22.922Z,18.93
2019-05-02T11:39:52.807Z,20.73
2019-05-02T11:42:17.622Z,20.60
2019-05-02T11:44:43.158Z,19.50
2019-05-02T11:47:09.914Z,21.80
2019-05-02T11:49:36.639Z,20.20
2019-05-02T11:52:04.682Z,20.30
2019-05-02T11:54:31.857Z,20.00
2019-05-02T11:56:56.962Z,20.47
2019-05-02T11:59:28.185Z,20.50
2019-05-02T12:02:00.129Z,18.80
2019-05-02T12:04:24.923Z,16.70
2019-05-02T12:07:00.902Z,17.17
2019-05-02T12:09:18.386Z,18.90
2019-05-02T12:11:47.501Z,18.30
2019-05-02T12:14:12.362Z,17.80
2019-05-02T12:16:38.614Z,16.17
2019-05-02T12:19:11.381Z,16.07
2019-05-02T12:21:32.635Z,14.70
2019-05-02T12:23:58.847Z,15.53
2019-05-02T12:26:25.750Z,15.43
2019-05-02T12:28:52.831Z,14.70
2019-05-02T12:31:25.426Z,15.10
2019-05-02T12:33:52.178Z,13.70
2019-05-02T12:36:18.918Z,13.73
2019-05-02T12:38:45.686Z,14.70
2019-05-02T12:41:20.380Z,15.47
2019-05-02T12:43:39.187Z,12.83
2019-05-02T12:46:05.923Z,11.90
2019-05-02T12:48:32.840Z,13.50
2019-05-02T12:50:59.426Z,14.20
2019-05-02T12:53:26.167Z,14.30
2019-05-02T12:55:52.907Z,11.70
2019-05-02T12:58:21.741Z,11.93
2019-05-02T13:00:46.381Z,11.17
2019-05-02T13:03:33.610Z,12.40
2019-05-02T13:06:00.390Z,11.57
2019-05-02T13:08:27.154Z,11.33
2019-05-02T13:11:15.362Z,10.17
2019-05-02T13:13:42.107Z,10.03
2019-05-02T13:16:08.868Z,10.60
2019-05-02T13:18:37.208Z,10.53
2019-05-02T13:21:02.405Z,9.50
2019-05-02T13:23:42.648Z,9.53
2019-05-02T13:26:18.145Z,10.30
2019-05-02T13:28:36.087Z,9.43
2019-05-02T13:31:11.743Z,8.10
2019-05-02T13:33:42.830Z,9.07
2019-05-02T13:36:34.722Z,11.47
2019-05-02T13:39:01.824Z,9.60
2019-05-02T13:41:29.290Z,10.32
2019-05-02T13:43:56.058Z,10.37
2019-05-02T13:46:22.803Z,9.40
2019-05-02T13:48:49.635Z,10.40
2019-05-02T13:51:16.362Z,9.20
2019-05-02T13:53:53.309Z,9.90
2019-05-02T13:56:45.501Z,10.00
2019-05-02T13:59:12.993Z,10.60
2019-05-02T14:01:39.371Z,12.03
2019-05-02T14:04:10.521Z,11.33
2019-05-02T14:06:37.691Z,12.70
2019-05-02T14:09:07.473Z,11.70
2019-05-02T14:11:37.093Z,13.40
2019-05-02T14:14:03.857Z,14.17
2019-05-02T14:16:32.071Z,15.30
2019-05-02T14:18:57.410Z,14.23
2019-05-02T14:21:24.155Z,15.80
2019-05-02T14:23:51.931Z,14.97
2019-05-02T14:26:29.749Z,14.43
2019-05-02T14:28:45.877Z,15.77
2019-05-02T14:31:12.644Z,14.90
2019-05-02T14:33:39.378Z,15.80
2019-05-02T14:36:06.142Z,15.00
2019-05-02T14:38:32.894Z,15.53
2019-05-02T14:41:03.807Z,14.90
2019-05-02T14:43:37.998Z,15.43
2019-05-02T14:46:03.989Z,17.90
2019-05-02T14:48:34.478Z,19.77
2019-05-02T14:51:01.736Z,18.37
2019-05-02T14:53:26.341Z,17.90
2019-05-02T14:55:53.222Z,18.50
2019-05-02T14:58:19.838Z,18.50
2019-05-02T15:00:48.117Z,19.52
2019-05-02T15:03:13.315Z,18.77
2019-05-02T15:05:42.121Z,19.43
2019-05-02T15:08:07.001Z,18.07
2019-05-02T15:10:37.628Z,18.75
2019-05-02T15:13:01.866Z,18.67
2019-05-02T15:15:28.047Z,17.87
2019-05-02T15:17:53.816Z,18.47
2019-05-02T15:20:23.544Z,20.33
2019-05-02T15:22:48.128Z,16.70
2019-05-02T15:25:17.879Z,18.50
2019-05-02T15:27:44.549Z,18.30
2019-05-02T15:30:08.558Z,17.93
2019-05-02T15:32:44.986Z,22.10
2019-05-02T15:35:17.592Z,17.07
2019-05-02T15:37:41.715Z,19.97
2019-05-02T15:42:34.421Z,14.90
2019-05-02T15:45:02.005Z,15.70
2019-05-02T15:47:27.970Z,16.83
2019-05-02T15:49:54.713Z,16.03
2019-05-02T15:52:27.784Z,14.70
2019-05-02T15:54:59.544Z,15.93
2019-05-02T15:57:21.786Z,17.17
2019-05-02T15:59:46.253Z,15.60
2019-05-02T16:02:17.708Z,14.73
2019-05-02T16:04:41.777Z,14.07
2019-05-02T16:07:08.488Z,14.80
2019-05-02T16:09:34.782Z,14.20
2019-05-02T16:12:03.102Z,15.13
2019-05-02T16:14:34.131Z,13.23
2019-05-02T16:16:55.006Z,13.57
2019-05-02T16:19:28.823Z,13.53
2019-05-02T16:21:53.750Z,12.50
2019-05-02T16:24:22.873Z,13.97
2019-05-02T16:26:48.506Z,13.47
2019-05-02T16:29:23.430Z,14.17
2019-05-02T16:31:42.461Z,14.57
2019-05-02T16:34:09.062Z,14.13
2019-05-02T16:36:37.490Z,15.70
2019-05-02T16:39:05.222Z,16.60
2019-05-02T16:41:29.449Z,14.90
2019-05-02T16:43:56.179Z,15.17
2019-05-02T16:46:23.034Z,18.57
2019-05-02T16:48:49.811Z,17.13
2019-05-02T16:51:29.870Z,16.27
2019-05-02T16:53:43.397Z,16.93
2019-05-02T16:56:11.554Z,17.93
2019-05-02T16:58:37.978Z,17.17
2019-05-02T17:01:03.623Z,15.77
2019-05-02T17:03:31.619Z,17.57
2019-05-02T17:05:57.103Z,16.93
2019-05-02T17:08:49.430Z,17.23
2019-05-02T17:11:16.356Z,19.87
2019-05-02T17:13:43.123Z,18.47
2019-05-02T17:16:12.992Z,19.10
2019-05-02T17:18:37.618Z,21.40
2019-05-02T17:21:04.375Z,22.20
2019-05-02T17:23:32.788Z,19.70
2019-05-02T17:25:57.822Z,19.17
2019-05-02T17:28:24.561Z,21.47
2019-05-02T17:30:52.442Z,21.97
2019-05-02T17:33:18.021Z,20.03
2019-05-02T17:35:49.319Z,21.30
2019-05-02T17:38:12.008Z,21.40
2019-05-02T17:40:38.302Z,23.33
2019-05-02T17:43:06.900Z,27.13
2019-05-02T17:45:33.627Z,26.37
2019-05-02T17:47:58.561Z,28.50
2019-05-02T17:50:33.598Z,31.75
2019-05-02T17:53:00.955Z,28.70
2019-05-02T17:55:27.132Z,28.20
2019-05-02T17:57:53.874Z,28.37
2019-05-02T18:00:22.335Z,29.20
2019-05-02T18:02:51.837Z,27.83
2019-05-02T18:05:15.843Z,28.07
2019-05-02T18:07:42.590Z,25.72
2019-05-02T18:10:16.727Z,26.93
2019-05-02T18:12:36.162Z,27.93
2019-05-02T18:15:03.301Z,26.60
2019-05-02T18:17:31.678Z,27.23
2019-05-02T18:19:56.720Z,26.97
2019-05-02T18:22:26.262Z,26.47
2019-05-02T18:24:49.954Z,29.12
2019-05-02T18:27:16.715Z,29.67
2019-05-02T18:29:45.618Z,29.40
2019-05-02T18:32:10.174Z,27.60
2019-05-02T18:34:36.894Z,26.07
2019-05-02T18:37:06.221Z,28.10
2019-05-02T18:39:34.911Z,27.00
2019-05-02T18:41:57.143Z,27.00
2019-05-02T18:44:23.971Z,29.37
2019-05-02T18:46:51.917Z,29.30
2019-05-02T18:49:21.956Z,26.93
2019-05-02T18:51:48.240Z,26.67
2019-05-02T18:54:12.136Z,28.70
2019-05-02T18:56:42.819Z,28.07
2019-05-02T18:59:04.418Z,29.50
2019-05-02T19:01:32.021Z,28.87
2019-05-02T19:03:57.934Z,30.83
2019-05-02T19:06:28.016Z,32.83
2019-05-02T19:08:52.291Z,32.73
2019-05-02T19:11:18.239Z,35.20
2019-05-02T19:13:45.028Z,32.97
2019-05-02T19:16:12.924Z,32.10
2019-05-02T19:18:38.442Z,31.50
2019-05-02T19:21:05.162Z,28.87
2019-05-02T19:23:32.137Z,30.63
2019-05-02T19:26:03.767Z,29.87
2019-05-02T19:28:36.780Z,30.37
2019-05-02T19:30:57.375Z,30.83
2019-05-02T19:33:23.779Z,31.10
2019-05-02T19:35:52.438Z,33.60
2019-05-02T19:38:21.698Z,32.63
2019-05-02T19:40:44.018Z,31.20
2019-05-02T19:43:12.722Z,33.23
2019-05-02T19:45:37.492Z,33.77
2019-05-02T19:48:04.255Z,32.10
2019-05-02T19:50:40.528Z,34.37
2019-05-02T19:53:04.402Z,30.73
2019-05-02T19:55:29.023Z,31.40
2019-05-02T19:57:56.689Z,31.00
2019-05-02T20:00:22.496Z,30.67
2019-05-02T20:02:49.226Z,31.40
2019-05-02T20:05:16.403Z,30.97
2019-05-02T20:07:43.014Z,30.77
2019-05-02T20:10:09.766Z,36.38
2019-05-02T20:12:42.435Z,38.40
2019-05-02T20:15:03.542Z,32.30
2019-05-02T20:17:32.454Z,32.17
2019-05-02T20:20:02.560Z,38.25
2019-05-02T20:22:24.483Z,34.57
2019-05-02T20:24:55.456Z,37.00
2019-05-02T20:27:19.016Z,33.07
2019-05-02T20:29:45.778Z,31.57
2019-05-02T20:32:12.684Z,32.40
2019-05-02T20:34:39.291Z,31.73
2019-05-02T20:37:06.053Z,32.03
2019-05-02T20:39:32.803Z,32.00
2019-05-02T20:41:59.514Z,37.00
2019-05-02T20:44:26.257Z,32.30
2019-05-02T20:46:52.986Z,33.73
2019-05-02T20:49:19.726Z,39.27
2019-05-02T20:51:46.451Z,37.07
2019-05-02T20:54:13.198Z,35.13
2019-05-02T20:56:39.922Z,35.53
2019-05-02T20:59:06.682Z,35.77
2019-05-02T21:01:33.410Z,35.53
2019-05-02T21:04:00.153Z,36.10
2019-05-02T21:06:40.796Z,35.90
2019-05-02T21:09:10.822Z,39.53
2019-05-02T21:11:37.553Z,39.30
2019-05-02T21:14:04.294Z,37.63
2019-05-02T21:16:32.261Z,41.53
2019-05-02T21:18:57.771Z,44.00
2019-05-02T21:21:24.626Z,42.13
2019-05-02T21:23:52.926Z,45.87
2019-05-02T21:26:18.106Z,41.97
2019-05-02T21:28:46.161Z,44.23
2019-05-02T21:31:12.118Z,39.57
2019-05-02T21:33:38.329Z,40.40
2019-05-02T21:36:05.533Z,42.57
2019-05-02T21:38:32.242Z,41.43
2019-05-02T21:40:58.982Z,41.37
2019-05-02T21:43:25.698Z,41.30
2019-05-02T21:45:52.451Z,41.00
2019-05-02T21:48:19.183Z,40.90
2019-05-02T21:50:50.496Z,38.97
2019-05-02T21:53:38.761Z,40.63
2019-05-02T21:56:12.299Z,39.67
2019-05-02T21:58:37.857Z,39.37
2019-05-02T22:01:12.742Z,36.23
2019-05-02T22:03:37.778Z,38.20
2019-05-02T22:06:04.578Z,38.30
2019-05-02T22:08:32.364Z,38.20
2019-05-02T22:10:58.062Z,37.27
2019-05-02T22:13:24.804Z,39.53
2019-05-02T22:15:51.726Z,40.80
2019-05-02T22:18:18.270Z,40.70
2019-05-02T22:20:45.051Z,39.60
2019-05-02T22:23:11.918Z,39.30
2019-05-02T22:25:38.520Z,39.03
2019-05-02T22:28:05.257Z,39.23
2019-05-02T22:30:32.353Z,45.95
2019-05-02T22:32:58.715Z,41.07
2019-05-02T22:35:25.446Z,48.52
2019-05-02T22:37:52.253Z,40.67
2019-05-02T22:40:18.994Z,37.83
2019-05-02T22:42:45.721Z,36.50
2019-05-02T22:45:12.575Z,37.97
2019-05-02T22:47:39.215Z,38.43
2019-05-02T22:50:05.936Z,37.70
2019-05-02T22:52:32.673Z,38.77
2019-05-02T22:54:59.397Z,35.23
2019-05-02T22:57:26.150Z,37.20
2019-05-02T22:59:52.874Z,35.90
2019-05-02T23:02:21.803Z,34.27
2019-05-02T23:04:46.462Z,34.80
2019-05-02T23:07:13.213Z,35.77
2019-05-02T23:09:43.440Z,43.20
2019-05-02T23:12:06.670Z,35.03
2019-05-02T23:14:33.412Z,41.58
2019-05-02T23:17:01.704Z,37.23
2019-05-02T23:19:26.894Z,36.30
2019-05-02T23:21:53.656Z,34.80
2019-05-02T23:24:36.230Z,40.58
2019-05-02T23:27:13.431Z,35.57
2019-05-02T23:29:39.970Z,35.50
2019-05-02T23:32:06.715Z,33.57
2019-05-02T23:34:33.442Z,34.63
2019-05-02T23:37:00.186Z,39.38
2019-05-02T23:39:26.917Z,33.80
2019-05-02T23:41:53.659Z,35.00
2019-05-02T23:44:20.398Z,32.80
2019-05-02T23:46:47.141Z,34.50
2019-05-02T23:49:13.870Z,35.13
2019-05-02T23:51:42.537Z,35.30
2019-05-02T23:54:07.346Z,33.07
2019-05-02T23:56:34.094Z,37.47
2019-05-02T23:59:02.581Z,33.93
